Time;durP1;ratioP1;P1;durP2;ratioP2;P2;SDS_P1;SDS_P2;PMS_P1;PMS_P2;Temp;Humidity;BMP_temperature;BMP_pressure;BME280_temperature;BME280_humidity;BME280_pressure;Samples;Min_cycle;Max_cycle;Signal;HPM_P1;HPM_P2
2022/08/21 00:01:07;;;;;;;;;;;;;;;;;;5048428;28;19913;-73
2022/08/21 00:03:54;;;;;;;;;;;;;;;;;;5042192;28;20395;-73
2022/08/21 00:06:40;;;;;;;;;;;;;;;;;;5047588;28;19916;-73
2022/08/21 00:09:27;;;;;;;;;;;;;;;;;;5029871;28;19913;-73
2022/08/21 00:12:13;;;;;;;;;;;;;;;;;;5048705;28;19925;-73
2022/08/21 00:15:00;;;;;;;;;;;;;;;;;;5046835;28;19916;-73
2022/08/21 00:17:46;;;;;;;;;;;;;;;;;;5037168;28;19928;-72
2022/08/21 00:20:33;;;;;;;;;;;;;;;;;;5038900;28;19917;-73
2022/08/21 00:23:19;;;;;;;;;;;;;;;;;;5021592;28;19910;-73
2022/08/21 00:26:06;;;;;;;;;;;;;;;;;;5047303;28;20365;-73
2022/08/21 00:28:52;;;;;;;;;;;;;;;;;;5047267;28;19924;-73
2022/08/21 00:31:39;;;;;;;;;;;;;;;;;;5050146;28;20376;-73
2022/08/21 00:34:25;;;;;;;;;;;;;;;;;;5047294;28;20292;-72
2022/08/21 00:37:12;;;;;;;;;;;;;;;;;;5042508;28;19923;-74
2022/08/21 00:39:58;;;;;;;;;;;;;;;;;;5042194;28;19919;-72
2022/08/21 00:42:45;;;;;;;;;;;;;;;;;;5047558;28;19924;-73
2022/08/21 00:45:31;;;;;;;;;;;;;;;;;;5048378;28;19913;-72
2022/08/21 00:48:18;;;;;;;;;;;;;;;;;;5046655;28;19913;-72
2022/08/21 00:51:04;;;;;;;;;;;;;;;;;;5048656;28;19923;-73
2022/08/21 00:53:52;;;;;;;;;;;;;;;;;;5044558;28;19920;-73
2022/08/21 00:56:38;;;;;;;;;;;;;;;;;;5047860;28;20284;-73
2022/08/21 00:59:25;;;;;;;;;;;;;;;;;;5047759;28;19913;-73
2022/08/21 01:02:11;;;;;;;;;;;;;;;;;;5042394;28;19963;-73
2022/08/21 01:04:58;;;;;;;;;;;;;;;;;;5046639;28;19913;-71
2022/08/21 01:07:44;;;;;;;;;;;;;;;;;;5048803;28;19909;-72
2022/08/21 01:10:31;;;;;;;;;;;;;;;;;;5044888;28;19912;-73
2022/08/21 01:13:18;;;;;;;;;;;;;;;;;;5043570;28;19925;-72
2022/08/21 01:16:04;;;;;;;;;;;;;;;;;;5044131;28;19919;-72
2022/08/21 01:18:51;;;;;;;;;;;;;;;;;;5046299;28;19920;-72
2022/08/21 01:21:37;;;;;;;;;;;;;;;;;;5039452;28;19917;-72
2022/08/21 01:24:24;;;;;;;;;;;;;;;;;;5044453;28;19912;-73
2022/08/21 01:27:11;;;;;;;;;;;;;;;;;;5043214;28;20384;-74
2022/08/21 01:29:57;;;;;;;;;;;;;;;;;;5044509;28;20562;-72
2022/08/21 01:32:44;;;;;;;;;;;;;;;;;;5045515;28;19915;-73
2022/08/21 01:35:30;;;;;;;;;;;;;;;;;;5045741;28;19920;-73
2022/08/21 01:38:17;;;;;;;;;;;;;;;;;;5045805;28;19924;-74
2022/08/21 01:41:04;;;;;;;;;;;;;;;;;;5046669;28;19920;-73
2022/08/21 01:43:50;;;;;;;;;;;;;;;;;;5033690;28;20282;-73
2022/08/21 01:46:37;;;;;;;;;;;;;;;;;;5047149;28;19909;-72
2022/08/21 01:49:23;;;;;;;;;;;;;;;;;;5042126;28;19913;-72
2022/08/21 01:52:10;;;;;;;;;;;;;;;;;;5043644;28;19916;-72
2022/08/21 01:54:56;;;;;;;;;;;;;;;;;;5037503;28;19913;-72
2022/08/21 01:57:42;;;;;;;;;;;;;;;;;;5048503;28;19928;-73
2022/08/21 02:00:29;;;;;;;;;;;;;;;;;;5040680;28;20683;-72
2022/08/21 02:03:15;;;;;;;;;;;;;;;;;;5045934;28;19919;-73
2022/08/21 02:06:02;;;;;;;;;;;;;;;;;;5033145;28;19914;-72
2022/08/21 02:08:50;;;;;;;;;;;;;;;;;;5044349;28;19915;-72
2022/08/21 02:11:40;;;;;;;;;;;;;;;;;;5044958;28;20332;-73
2022/08/21 02:14:26;;;;;;;;;;;;;;;;;;5043705;28;19919;-72
2022/08/21 02:17:13;;;;;;;;;;;;;;;;;;5045290;28;19932;-72
2022/08/21 02:19:59;;;;;;;;;;;;;;;;;;5042729;28;20357;-72
2022/08/21 02:22:45;;;;;;;;;;;;;;;;;;5042504;28;19917;-74
2022/08/21 02:25:32;;;;;;;;;;;;;;;;;;5039527;28;20404;-72
2022/08/21 02:28:18;;;;;;;;;;;;;;;;;;5045676;28;19916;-72
2022/08/21 02:31:05;;;;;;;;;;;;;;;;;;5030372;28;20522;-72
2022/08/21 02:33:51;;;;;;;;;;;;;;;;;;5042869;28;19915;-72
2022/08/21 02:36:38;;;;;;;;;;;;;;;;;;5042549;28;20393;-73
2022/08/21 02:39:24;;;;;;;;;;;;;;;;;;5044201;28;20305;-74
2022/08/21 02:42:11;;;;;;;;;;;;;;;;;;5040739;28;19919;-72
2022/08/21 02:44:57;;;;;;;;;;;;;;;;;;5045988;28;19917;-73
2022/08/21 02:47:44;;;;;;;;;;;;;;;;;;5041131;28;19915;-72
2022/08/21 02:50:30;;;;;;;;;;;;;;;;;;5040015;28;20253;-73
2022/08/21 02:53:16;;;;;;;;;;;;;;;;;;5046622;28;19909;-73
2022/08/21 02:56:03;;;;;;;;;;;;;;;;;;5045349;28;19929;-72
2022/08/21 02:58:51;;;;;;;;;;;;;;;;;;5045922;28;20294;-73
2022/08/21 03:01:37;;;;;;;;;;;;;;;;;;5046136;28;20384;-74
2022/08/21 03:04:24;;;;;;;;;;;;;;;;;;5046253;28;19913;-72
2022/08/21 03:07:10;;;;;;;;;;;;;;;;;;5046278;28;20280;-72
2022/08/21 03:09:57;;;;;;;;;;;;;;;;;;5050999;28;19920;-73
2022/08/21 03:12:43;;;;;;;;;;;;;;;;;;5047164;28;20574;-73
2022/08/21 03:15:29;;;;;;;;;;;;;;;;;;5048910;28;19916;-73
2022/08/21 03:18:16;;;;;;;;;;;;;;;;;;5044302;28;20265;-73
2022/08/21 03:21:03;;;;;;;;;;;;;;;;;;5046788;28;19920;-74
2022/08/21 03:23:49;;;;;;;;;;;;;;;;;;5047291;28;19912;-73
2022/08/21 03:26:36;;;;;;;;;;;;;;;;;;5049308;28;19913;-73
2022/08/21 03:29:22;;;;;;;;;;;;;;;;;;5030342;28;19963;-72
2022/08/21 03:32:09;;;;;;;;;;;;;;;;;;5044429;28;20555;-72
2022/08/21 03:34:55;;;;;;;;;;;;;;;;;;5044263;28;20466;-73
2022/08/21 03:37:42;;;;;;;;;;;;;;;;;;5044049;28;19929;-73
2022/08/21 03:40:28;;;;;;;;;;;;;;;;;;5044713;28;20413;-74
2022/08/21 03:43:16;;;;;;;;;;;;;;;;;;5049920;28;20415;-73
2022/08/21 03:46:03;;;;;;;;;;;;;;;;;;5048201;28;19923;-73
2022/08/21 03:48:49;;;;;;;;;;;;;;;;;;5049549;28;19909;-73
2022/08/21 03:51:36;;;;;;;;;;;;;;;;;;5045880;28;19912;-73
2022/08/21 03:54:22;;;;;;;;;;;;;;;;;;5048120;28;19909;-72
2022/08/21 03:57:09;;;;;;;;;;;;;;;;;;5043749;28;19921;-74
2022/08/21 03:59:55;;;;;;;;;;;;;;;;;;5040071;28;19913;-74
2022/08/21 04:02:43;;;;;;;;;;;;;;;;;;5042839;28;19931;-72
2022/08/21 04:05:29;;;;;;;;;;;;;;;;;;5038413;28;20311;-74
2022/08/21 04:08:18;;;;;;;;;;;;;;;;;;5041947;28;19924;-74
2022/08/21 04:11:04;;;;;;;;;;;;;;;;;;5043411;28;20399;-73
2022/08/21 04:13:51;;;;;;;;;;;;;;;;;;5036588;28;19917;-73
2022/08/21 04:16:37;;;;;;;;;;;;;;;;;;5033527;28;19924;-73
2022/08/21 04:19:24;;;;;;;;;;;;;;;;;;5046748;28;19915;-73
2022/08/21 04:22:10;;;;;;;;;;;;;;;;;;5038301;28;19919;-74
2022/08/21 04:24:57;;;;;;;;;;;;;;;;;;5046510;28;20684;-73
2022/08/21 04:27:43;;;;;;;;;;;;;;;;;;5043448;28;19954;-73
2022/08/21 04:30:30;;;;;;;;;;;;;;;;;;5047879;28;19924;-73
2022/08/21 04:33:16;;;;;;;;;;;;;;;;;;5043431;28;19917;-72
2022/08/21 04:36:03;;;;;;;;;;;;;;;;;;5040603;28;19943;-72
2022/08/21 04:38:49;;;;;;;;;;;;;;;;;;5044121;28;20372;-73
2022/08/21 04:41:36;;;;;;;;;;;;;;;;;;5044286;28;19917;-72
2022/08/21 04:44:23;;;;;;;;;;;;;;;;;;5044648;28;19908;-72
2022/08/21 04:47:09;;;;;;;;;;;;;;;;;;5044217;28;19916;-73
2022/08/21 04:49:56;;;;;;;;;;;;;;;;;;5046273;28;19919;-72
2022/08/21 04:52:42;;;;;;;;;;;;;;;;;;5028040;28;19916;-72
2022/08/21 04:55:29;;;;;;;;;;;;;;;;;;5029640;28;20230;-71
2022/08/21 04:58:16;;;;;;;;;;;;;;;;;;5044785;28;19924;-72
2022/08/21 05:01:03;;;;;;;;;;;;;;;;;;5044569;28;19916;-72
2022/08/21 05:03:49;;;;;;;;;;;;;;;;;;5040040;28;19926;-73
2022/08/21 05:06:36;;;;;;;;;;;;;;;;;;5049143;28;19917;-74
2022/08/21 05:09:23;;;;;;;;;;;;;;;;;;5046098;28;19916;-73
2022/08/21 05:12:10;;;;;;;;;;;;;;;;;;5042993;28;19924;-73
2022/08/21 05:14:56;;;;;;;;;;;;;;;;;;5043402;28;19917;-74
2022/08/21 05:17:43;;;;;;;;;;;;;;;;;;5039967;28;19928;-73
2022/08/21 05:20:29;;;;;;;;;;;;;;;;;;5032303;28;19909;-73
2022/08/21 05:23:16;;;;;;;;;;;;;;;;;;5045795;28;19912;-73
2022/08/21 05:26:04;;;;;;;;;;;;;;;;;;5021210;28;19955;-72
2022/08/21 05:28:50;;;;;;;;;;;;;;;;;;5046678;28;19924;-75
2022/08/21 05:31:37;;;;;;;;;;;;;;;;;;5032220;28;19923;-73
2022/08/21 05:34:23;;;;;;;;;;;;;;;;;;5047307;28;19920;-73
2022/08/21 05:37:10;;;;;;;;;;;;;;;;;;5030626;28;20031;-72
2022/08/21 05:39:57;;;;;;;;;;;;;;;;;;5042817;28;19919;-72
2022/08/21 05:42:43;;;;;;;;;;;;;;;;;;5038045;28;20379;-71
2022/08/21 05:45:30;;;;;;;;;;;;;;;;;;5048077;28;19919;-73
2022/08/21 05:48:16;;;;;;;;;;;;;;;;;;5042540;28;19917;-73
2022/08/21 05:51:03;;;;;;;;;;;;;;;;;;5041598;28;19913;-72
2022/08/21 05:53:49;;;;;;;;;;;;;;;;;;5040757;28;19920;-72
2022/08/21 05:56:36;;;;;;;;;;;;;;;;;;5032390;28;19920;-72
2022/08/21 05:59:22;;;;;;;;;;;;;;;;;;5042306;28;19939;-73
2022/08/21 06:02:09;;;;;;;;;;;;;;;;;;5037935;28;19920;-73
2022/08/21 06:04:55;;;;;;;;;;;;;;;;;;5039288;28;19913;-74
2022/08/21 06:07:42;;;;;;;;;;;;;;;;;;5048364;28;20392;-74
2022/08/21 06:10:28;;;;;;;;;;;;;;;;;;5037989;28;19916;-74
2022/08/21 06:13:15;;;;;;;;;;;;;;;;;;5034674;28;19921;-74
2022/08/21 06:16:02;;;;;;;;;;;;;;;;;;5045470;28;19916;-73
2022/08/21 06:18:48;;;;;;;;;;;;;;;;;;5040906;28;19921;-74
2022/08/21 06:21:35;;;;;;;;;;;;;;;;;;5038599;28;19909;-72
2022/08/21 06:24:21;;;;;;;;;;;;;;;;;;5045473;28;19909;-73
2022/08/21 06:27:08;;;;;;;;;;;;;;;;;;5043957;28;20353;-72
2022/08/21 06:29:56;;;;;;;;;;;;;;;;;;5042519;28;19912;-73
2022/08/21 06:32:42;;;;;;;;;;;;;;;;;;5046492;28;19916;-73
2022/08/21 06:35:29;;;;;;;;;;;;;;;;;;5045801;28;20012;-78
2022/08/21 06:38:15;;;;;;;;;;;;;;;;;;5043742;28;19923;-72
2022/08/21 06:41:02;;;;;;;;;;;;;;;;;;5035346;28;19971;-72
2022/08/21 06:43:48;;;;;;;;;;;;;;;;;;5042192;28;19951;-74
2022/08/21 06:46:35;;;;;;;;;;;;;;;;;;5028597;28;20249;-73
2022/08/21 06:49:21;;;;;;;;;;;;;;;;;;5045899;28;19909;-73
2022/08/21 06:52:08;;;;;;;;;;;;;;;;;;5042853;28;20012;-73
2022/08/21 06:54:54;;;;;;;;;;;;;;;;;;5045656;28;19913;-73
2022/08/21 06:57:41;;;;;;;;;;;;;;;;;;5044125;28;19917;-72
2022/08/21 07:00:27;;;;;;;;;;;;;;;;;;5042840;28;19913;-73
2022/08/21 07:03:14;;;;;;;;;;;;;;;;;;5027969;28;19913;-73
2022/08/21 07:06:00;;;;;;;;;;;;;;;;;;5041628;28;19913;-73
2022/08/21 07:08:47;;;;;;;;;;;;;;;;;;5042156;28;19917;-73
2022/08/21 07:11:33;;;;;;;;;;;;;;;;;;5043257;28;19917;-74
2022/08/21 07:14:19;;;;;;;;;;;;;;;;;;5044678;28;19942;-74
2022/08/21 07:17:06;;;;;;;;;;;;;;;;;;5043086;28;19928;-73
2022/08/21 07:19:52;;;;;;;;;;;;;;;;;;5045765;28;19913;-73
2022/08/21 07:22:39;;;;;;;;;;;;;;;;;;5044801;28;19943;-73
2022/08/21 07:25:25;;;;;;;;;;;;;;;;;;5044302;28;20266;-73
2022/08/21 07:28:12;;;;;;;;;;;;;;;;;;5023330;28;20292;-72
2022/08/21 07:30:58;;;;;;;;;;;;;;;;;;5043374;28;19928;-72
2022/08/21 07:33:45;;;;;;;;;;;;;;;;;;5041027;28;19921;-73
2022/08/21 07:36:31;;;;;;;;;;;;;;;;;;5038791;28;19913;-73
2022/08/21 07:39:18;;;;;;;;;;;;;;;;;;5047198;28;19925;-73
2022/08/21 07:42:04;;;;;;;;;;;;;;;;;;5045759;28;19919;-73
2022/08/21 07:44:51;;;;;;;;;;;;;;;;;;5047779;28;20266;-72
2022/08/21 07:47:38;;;;;;;;;;;;;;;;;;5045517;28;19920;-72
2022/08/21 07:50:24;;;;;;;;;;;;;;;;;;5048544;28;19915;-73
2022/08/21 07:53:17;;;;;;;;;;;;;;;;;;5047700;28;19919;-74
2022/08/21 07:56:04;;;;;;;;;;;;;;;;;;5034131;28;19916;-73
2022/08/21 07:58:53;;;;;;;;;;;;;;;;;;5047734;28;20262;-73
2022/08/21 08:01:40;;;;;;;;;;;;;;;;;;5049545;28;19930;-72
2022/08/21 08:04:26;;;;;;;;;;;;;;;;;;5044900;28;19913;-72
2022/08/21 08:07:13;;;;;;;;;;;;;;;;;;5045742;28;19921;-73
2022/08/21 08:09:59;;;;;;;;;;;;;;;;;;5045572;28;19923;-72
2022/08/21 08:12:46;;;;;;;;;;;;;;;;;;5045140;28;20406;-72
2022/08/21 08:15:32;;;;;;;;;;;;;;;;;;5046366;28;19913;-71
2022/08/21 08:18:19;;;;;;;;;;;;;;;;;;5030248;28;20603;-72
2022/08/21 08:21:05;;;;;;;;;;;;;;;;;;5045212;28;20595;-72
2022/08/21 08:23:52;;;;;;;;;;;;;;;;;;5046132;28;19917;-72
2022/08/21 08:26:38;;;;;;;;;;;;;;;;;;5042957;28;19909;-71
2022/08/21 08:29:26;;;;;;;;;;;;;;;;;;5043974;28;20373;-74
2022/08/21 08:32:12;;;;;;;;;;;;;;;;;;5045173;28;19917;-74
2022/08/21 08:34:59;;;;;;;;;;;;;;;;;;5031246;28;19916;-74
2022/08/21 08:37:45;;;;;;;;;;;;;;;;;;5044073;28;20331;-76
2022/08/21 08:40:33;;;;;;;;;;;;;;;;;;5046900;28;19917;-75
2022/08/21 08:43:19;;;;;;;;;;;;;;;;;;5046504;28;20312;-75
2022/08/21 08:46:06;;;;;;;;;;;;;;;;;;5046675;28;19913;-77
2022/08/21 08:48:52;;;;;;;;;;;;;;;;;;5044815;28;19908;-76
2022/08/21 08:51:39;;;;;;;;;;;;;;;;;;5046603;28;20288;-75
2022/08/21 08:54:25;;;;;;;;;;;;;;;;;;5044767;28;19912;-76
2022/08/21 08:57:12;;;;;;;;;;;;;;;;;;5046312;28;19939;-76
2022/08/21 08:59:58;;;;;;;;;;;;;;;;;;5044794;28;20011;-72
2022/08/21 09:02:45;;;;;;;;;;;;;;;;;;5043989;28;21049;-73
2022/08/21 09:05:32;;;;;;;;;;;;;;;;;;5043390;28;19917;-72
2022/08/21 09:08:18;;;;;;;;;;;;;;;;;;5044787;28;19909;-71
2022/08/21 09:11:05;;;;;;;;;;;;;;;;;;5043140;28;20361;-72
2022/08/21 09:13:51;;;;;;;;;;;;;;;;;;5044082;28;19940;-71
2022/08/21 09:16:37;;;;;;;;;;;;;;;;;;5044582;28;19916;-73
2022/08/21 09:19:25;;;;;;;;;;;;;;;;;;5044442;28;20274;-73
2022/08/21 09:22:11;;;;;;;;;;;;;;;;;;5043576;28;19917;-73
2022/08/21 09:24:58;;;;;;;;;;;;;;;;;;5045477;28;19921;-72
2022/08/21 09:27:44;;;;;;;;;;;;;;;;;;5047491;28;20396;-72
2022/08/21 09:30:30;;;;;;;;;;;;;;;;;;5034013;28;19909;-73
2022/08/21 09:33:17;;;;;;;;;;;;;;;;;;5046327;28;20562;-73
2022/08/21 09:36:04;;;;;;;;;;;;;;;;;;5041621;28;19910;-73
2022/08/21 09:38:50;;;;;;;;;;;;;;;;;;5045909;28;19927;-73
2022/08/21 09:41:37;;;;;;;;;;;;;;;;;;5044184;28;19924;-72
2022/08/21 09:44:23;;;;;;;;;;;;;;;;;;5042703;28;20301;-73
2022/08/21 09:47:12;;;;;;;;;;;;;;;;;;5043086;28;19908;-72
2022/08/21 09:49:58;;;;;;;;;;;;;;;;;;5045370;28;19919;-72
2022/08/21 09:52:45;;;;;;;;;;;;;;;;;;5045137;28;19913;-73
2022/08/21 09:58:37;;;;;;;;;;;;;;;;;;5045948;28;19927;-77
2022/08/21 10:01:23;;;;;;;;;;;;;;;;;;5043211;28;19999;-78
2022/08/21 10:04:10;;;;;;;;;;;;;;;;;;5044328;28;20414;-78
2022/08/21 10:06:56;;;;;;;;;;;;;;;;;;5045139;28;19909;-78
2022/08/21 10:09:43;;;;;;;;;;;;;;;;;;5046892;28;19916;-78
2022/08/21 10:12:29;;;;;;;;;;;;;;;;;;5046259;28;20381;-77
2022/08/21 10:15:15;;;;;;;;;;;;;;;;;;5045654;28;19915;-77
2022/08/21 10:18:02;;;;;;;;;;;;;;;;;;5046410;28;20376;-78
2022/08/21 10:20:48;;;;;;;;;;;;;;;;;;5043748;28;19913;-77
2022/08/21 10:23:35;;;;;;;;;;;;;;;;;;5029693;28;19909;-77
2022/08/21 10:26:21;;;;;;;;;;;;;;;;;;5042805;28;20376;-77
2022/08/21 10:29:08;;;;;;;;;;;;;;;;;;5044179;28;19923;-77
2022/08/21 10:31:54;;;;;;;;;;;;;;;;;;5044277;28;20019;-76
2022/08/21 10:34:41;;;;;;;;;;;;;;;;;;5040142;28;19953;-77
2022/08/21 10:37:27;;;;;;;;;;;;;;;;;;5041105;28;20407;-79
2022/08/21 10:40:14;;;;;;;;;;;;;;;;;;5045850;28;19920;-78
2022/08/21 10:43:00;;;;;;;;;;;;;;;;;;5042746;28;20296;-78
2022/08/21 10:45:47;;;;;;;;;;;;;;;;;;5043666;28;19923;-78
2022/08/21 10:48:33;;;;;;;;;;;;;;;;;;5041343;28;19912;-77
2022/08/21 10:51:20;;;;;;;;;;;;;;;;;;5043425;28;20390;-76
2022/08/21 10:54:06;;;;;;;;;;;;;;;;;;5044148;28;20281;-78
2022/08/21 10:56:52;;;;;;;;;;;;;;;;;;5044664;28;20020;-78
2022/08/21 10:59:39;;;;;;;;;;;;;;;;;;5043504;28;19928;-75
2022/08/21 11:02:26;;;;;;;;;;;;;;;;;;5041576;28;20380;-74
2022/08/21 11:05:12;;;;;;;;;;;;;;;;;;5040112;28;20274;-75
2022/08/21 11:07:59;;;;;;;;;;;;;;;;;;5044729;28;19912;-75
2022/08/21 11:10:45;;;;;;;;;;;;;;;;;;5043846;28;19913;-75
2022/08/21 11:13:32;;;;;;;;;;;;;;;;;;5047174;28;19924;-75
2022/08/21 11:16:18;;;;;;;;;;;;;;;;;;5047383;28;19927;-76
2022/08/21 11:19:05;;;;;;;;;;;;;;;;;;5047978;28;19928;-75
2022/08/21 11:21:51;;;;;;;;;;;;;;;;;;5045635;28;19913;-75
2022/08/21 11:24:38;;;;;;;;;;;;;;;;;;5045785;28;19917;-75
2022/08/21 11:27:25;;;;;;;;;;;;;;;;;;5045956;28;19913;-74
2022/08/21 11:30:11;;;;;;;;;;;;;;;;;;5048789;28;19921;-75
2022/08/21 11:32:58;;;;;;;;;;;;;;;;;;5046532;28;19996;-74
2022/08/21 11:35:44;;;;;;;;;;;;;;;;;;5041466;28;19908;-75
2022/08/21 11:38:33;;;;;;;;;;;;;;;;;;5050879;28;20487;-74
2022/08/21 11:41:19;;;;;;;;;;;;;;;;;;5045047;28;19913;-75
2022/08/21 11:44:05;;;;;;;;;;;;;;;;;;5046163;28;20359;-73
2022/08/21 11:46:52;;;;;;;;;;;;;;;;;;5049640;28;19909;-74
2022/08/21 11:49:38;;;;;;;;;;;;;;;;;;5042499;28;20241;-74
2022/08/21 11:52:25;;;;;;;;;;;;;;;;;;5046883;28;19913;-73
2022/08/21 11:55:11;;;;;;;;;;;;;;;;;;5047049;28;19915;-73
2022/08/21 11:57:58;;;;;;;;;;;;;;;;;;5047728;28;19925;-72
2022/08/21 12:00:44;;;;;;;;;;;;;;;;;;5044461;28;19931;-73
2022/08/21 12:03:31;;;;;;;;;;;;;;;;;;5046902;28;19916;-72
2022/08/21 12:06:17;;;;;;;;;;;;;;;;;;5041879;28;19921;-75
2022/08/21 12:09:04;;;;;;;;;;;;;;;;;;5045683;28;20284;-72
2022/08/21 12:11:50;;;;;;;;;;;;;;;;;;5045397;28;20297;-73
2022/08/21 12:14:37;;;;;;;;;;;;;;;;;;5045250;28;19915;-72
2022/08/21 12:17:23;;;;;;;;;;;;;;;;;;5049049;28;19928;-71
2022/08/21 12:20:09;;;;;;;;;;;;;;;;;;5043332;28;19913;-73
2022/08/21 12:22:56;;;;;;;;;;;;;;;;;;5044884;28;20262;-73
2022/08/21 12:25:42;;;;;;;;;;;;;;;;;;5049571;28;19920;-73
2022/08/21 12:28:30;;;;;;;;;;;;;;;;;;5037974;28;19916;-73
2022/08/21 12:31:16;;;;;;;;;;;;;;;;;;5040936;28;19915;-74
2022/08/21 12:34:03;;;;;;;;;;;;;;;;;;5032097;28;19913;-73
2022/08/21 12:36:49;;;;;;;;;;;;;;;;;;5046658;28;19920;-73
2022/08/21 12:39:36;;;;;;;;;;;;;;;;;;5047663;28;19946;-72
2022/08/21 12:42:22;;;;;;;;;;;;;;;;;;5044826;28;19909;-73
2022/08/21 12:45:09;;;;;;;;;;;;;;;;;;5030025;28;20319;-73
2022/08/21 12:47:55;;;;;;;;;;;;;;;;;;5048569;28;20386;-73
2022/08/21 12:50:41;;;;;;;;;;;;;;;;;;5038736;28;19919;-73
2022/08/21 12:53:28;;;;;;;;;;;;;;;;;;5046966;28;19916;-73
2022/08/21 12:56:14;;;;;;;;;;;;;;;;;;5044741;28;19932;-74
2022/08/21 12:59:03;;;;;;;;;;;;;;;;;;5039531;28;19916;-73
2022/08/21 13:01:49;;;;;;;;;;;;;;;;;;5046903;28;19916;-73
2022/08/21 13:04:36;;;;;;;;;;;;;;;;;;5044338;28;19923;-73
2022/08/21 13:07:24;;;;;;;;;;;;;;;;;;5039669;28;20384;-73
2022/08/21 13:10:10;;;;;;;;;;;;;;;;;;5042407;28;19921;-74
2022/08/21 13:12:57;;;;;;;;;;;;;;;;;;5042123;28;19928;-73
2022/08/21 13:15:43;;;;;;;;;;;;;;;;;;5043927;28;19921;-71
2022/08/21 13:18:32;;;;;;;;;;;;;;;;;;5045744;28;20445;-74
2022/08/21 13:21:19;;;;;;;;;;;;;;;;;;5043713;28;19928;-74
2022/08/21 13:24:05;;;;;;;;;;;;;;;;;;5047690;28;19919;-75
2022/08/21 13:26:52;;;;;;;;;;;;;;;;;;5046532;28;19916;-75
2022/08/21 13:29:38;;;;;;;;;;;;;;;;;;5044293;28;19917;-75
2022/08/21 13:32:25;;;;;;;;;;;;;;;;;;5044013;28;20421;-74
2022/08/21 13:35:11;;;;;;;;;;;;;;;;;;5044254;28;19913;-75
2022/08/21 13:37:58;;;;;;;;;;;;;;;;;;5044832;28;19927;-74
2022/08/21 13:40:46;;;;;;;;;;;;;;;;;;5044518;28;19912;-75
2022/08/21 13:43:33;;;;;;;;;;;;;;;;;;5042206;28;19924;-74
2022/08/21 13:46:19;;;;;;;;;;;;;;;;;;5042656;28;19923;-73
2022/08/21 13:49:06;;;;;;;;;;;;;;;;;;5041357;28;19917;-74
2022/08/21 13:51:52;;;;;;;;;;;;;;;;;;5043693;28;20369;-74
2022/08/21 13:54:39;;;;;;;;;;;;;;;;;;5043189;28;19919;-74
2022/08/21 13:57:26;;;;;;;;;;;;;;;;;;5044577;28;19924;-74
2022/08/21 14:00:12;;;;;;;;;;;;;;;;;;5045935;28;19931;-74
2022/08/21 14:02:59;;;;;;;;;;;;;;;;;;5040768;28;19920;-74
2022/08/21 14:05:45;;;;;;;;;;;;;;;;;;5045045;28;19913;-73
2022/08/21 14:08:32;;;;;;;;;;;;;;;;;;5028185;28;20562;-74
2022/08/21 14:11:18;;;;;;;;;;;;;;;;;;5042097;28;19924;-74
2022/08/21 14:14:05;;;;;;;;;;;;;;;;;;5030456;28;19919;-74
2022/08/21 14:16:51;;;;;;;;;;;;;;;;;;5047911;28;20289;-74
2022/08/21 14:19:38;;;;;;;;;;;;;;;;;;5043087;28;19924;-74
2022/08/21 14:22:24;;;;;;;;;;;;;;;;;;5044465;28;19920;-75
2022/08/21 14:25:11;;;;;;;;;;;;;;;;;;5042599;28;19917;-75
2022/08/21 14:27:58;;;;;;;;;;;;;;;;;;5044102;28;19936;-75
2022/08/21 14:30:45;;;;;;;;;;;;;;;;;;5046291;28;19909;-75
2022/08/21 14:33:31;;;;;;;;;;;;;;;;;;5046365;28;19923;-74
2022/08/21 14:36:18;;;;;;;;;;;;;;;;;;5036170;28;19920;-74
2022/08/21 14:39:04;;;;;;;;;;;;;;;;;;5041821;28;19932;-74
2022/08/21 14:41:51;;;;;;;;;;;;;;;;;;5046026;28;19920;-75
2022/08/21 14:44:37;;;;;;;;;;;;;;;;;;5043710;28;19919;-74
2022/08/21 14:47:24;;;;;;;;;;;;;;;;;;5024639;28;19917;-77
2022/08/21 14:50:10;;;;;;;;;;;;;;;;;;5047216;28;20395;-74
2022/08/21 14:52:57;;;;;;;;;;;;;;;;;;5047682;28;19908;-76
2022/08/21 14:58:51;;;;;;;;;;;;;;;;;;5042630;28;19932;-76
2022/08/21 15:01:38;;;;;;;;;;;;;;;;;;5046435;28;20459;-75
2022/08/21 15:04:24;;;;;;;;;;;;;;;;;;5049825;28;19919;-76
2022/08/21 15:07:11;;;;;;;;;;;;;;;;;;5041564;28;19913;-77
2022/08/21 15:09:57;;;;;;;;;;;;;;;;;;5031152;28;19909;-77
2022/08/21 15:12:44;;;;;;;;;;;;;;;;;;5050051;28;20413;-74
2022/08/21 15:15:30;;;;;;;;;;;;;;;;;;5046335;28;20699;-75
2022/08/21 15:18:17;;;;;;;;;;;;;;;;;;5048309;28;19928;-76
2022/08/21 15:21:03;;;;;;;;;;;;;;;;;;5048675;28;20411;-76
2022/08/21 15:23:50;;;;;;;;;;;;;;;;;;5046736;28;19916;-76
2022/08/21 15:26:36;;;;;;;;;;;;;;;;;;5033490;28;19990;-74
2022/08/21 15:29:23;;;;;;;;;;;;;;;;;;5046342;28;19919;-75
2022/08/21 15:32:09;;;;;;;;;;;;;;;;;;5049121;28;19919;-74
2022/08/21 15:34:56;;;;;;;;;;;;;;;;;;5048614;28;19955;-74
2022/08/21 15:37:42;;;;;;;;;;;;;;;;;;5046057;28;19919;-74
2022/08/21 15:40:28;;;;;;;;;;;;;;;;;;5047816;28;19921;-73
2022/08/21 15:43:15;;;;;;;;;;;;;;;;;;5045419;28;19946;-73
2022/08/21 15:46:02;;;;;;;;;;;;;;;;;;5043516;28;19928;-78
2022/08/21 15:48:49;;;;;;;;;;;;;;;;;;5042157;28;20625;-76
2022/08/21 15:51:35;;;;;;;;;;;;;;;;;;5049050;28;20529;-78
2022/08/21 15:54:22;;;;;;;;;;;;;;;;;;5046548;28;20361;-77
2022/08/21 15:57:08;;;;;;;;;;;;;;;;;;5042019;28;19923;-77
2022/08/21 15:59:55;;;;;;;;;;;;;;;;;;5040788;28;19917;-76
2022/08/21 16:02:41;;;;;;;;;;;;;;;;;;5049177;28;19923;-78
2022/08/21 16:05:28;;;;;;;;;;;;;;;;;;5048974;28;19917;-77
2022/08/21 16:08:14;;;;;;;;;;;;;;;;;;5047552;28;19932;-77
2022/08/21 16:11:01;;;;;;;;;;;;;;;;;;5046405;28;19940;-76
2022/08/21 16:13:47;;;;;;;;;;;;;;;;;;5048431;28;19917;-77
2022/08/21 16:16:34;;;;;;;;;;;;;;;;;;5047363;28;19919;-78
2022/08/21 16:19:20;;;;;;;;;;;;;;;;;;5045513;28;19917;-78
2022/08/21 16:22:07;;;;;;;;;;;;;;;;;;5041672;28;19919;-75
2022/08/21 16:24:53;;;;;;;;;;;;;;;;;;5048193;28;20103;-74
2022/08/21 16:27:40;;;;;;;;;;;;;;;;;;5044555;28;20452;-74
2022/08/21 16:30:26;;;;;;;;;;;;;;;;;;5042325;28;20671;-74
2022/08/21 16:33:13;;;;;;;;;;;;;;;;;;5044488;28;19917;-75
2022/08/21 16:35:59;;;;;;;;;;;;;;;;;;5046926;28;19992;-74
2022/08/21 16:38:47;;;;;;;;;;;;;;;;;;5042766;28;19940;-74
2022/08/21 16:41:33;;;;;;;;;;;;;;;;;;5044294;28;20471;-76
2022/08/21 16:44:20;;;;;;;;;;;;;;;;;;5041733;28;19913;-76
2022/08/21 16:47:07;;;;;;;;;;;;;;;;;;5046372;28;19916;-75
2022/08/21 16:49:53;;;;;;;;;;;;;;;;;;5048111;28;20383;-75
2022/08/21 16:52:40;;;;;;;;;;;;;;;;;;5039044;28;19916;-76
2022/08/21 16:55:26;;;;;;;;;;;;;;;;;;5047787;28;19916;-74
2022/08/21 16:58:12;;;;;;;;;;;;;;;;;;5044963;28;19921;-77
2022/08/21 17:01:00;;;;;;;;;;;;;;;;;;5046532;28;19913;-74
2022/08/21 17:03:46;;;;;;;;;;;;;;;;;;5043810;28;19916;-75
2022/08/21 17:06:33;;;;;;;;;;;;;;;;;;5048906;28;19912;-75
2022/08/21 17:09:19;;;;;;;;;;;;;;;;;;5046866;28;19920;-75
2022/08/21 17:12:06;;;;;;;;;;;;;;;;;;5044219;28;19925;-74
2022/08/21 17:14:53;;;;;;;;;;;;;;;;;;5048378;28;19963;-74
2022/08/21 17:17:39;;;;;;;;;;;;;;;;;;5042885;28;19921;-77
2022/08/21 17:20:26;;;;;;;;;;;;;;;;;;5042434;28;19928;-74
2022/08/21 17:23:12;;;;;;;;;;;;;;;;;;5042833;28;19935;-74
2022/08/21 17:25:59;;;;;;;;;;;;;;;;;;5041912;28;19913;-74
2022/08/21 17:28:45;;;;;;;;;;;;;;;;;;5037193;28;20345;-74
2022/08/21 17:31:31;;;;;;;;;;;;;;;;;;5043539;28;19924;-75
2022/08/21 17:34:28;;;;;;;;;;;;;;;;;;;;;
2022/08/21 17:37:15;;;;;;;;;;;;;;;;;;5044520;28;20396;-74
2022/08/21 17:40:04;;;;;;;;;;;;;;;;;;5043273;28;19936;-76
2022/08/21 17:42:51;;;;;;;;;;;;;;;;;;5045602;28;20368;-73
2022/08/21 17:45:37;;;;;;;;;;;;;;;;;;5042875;28;19923;-74
2022/08/21 17:48:24;;;;;;;;;;;;;;;;;;5026975;28;19913;-75
2022/08/21 17:51:10;;;;;;;;;;;;;;;;;;5044873;28;19920;-74
2022/08/21 17:53:57;;;;;;;;;;;;;;;;;;5043724;28;19919;-74
2022/08/21 17:56:43;;;;;;;;;;;;;;;;;;5044875;28;19912;-73
2022/08/21 17:59:30;;;;;;;;;;;;;;;;;;5037734;28;20393;-74
2022/08/21 18:02:16;;;;;;;;;;;;;;;;;;5039081;28;19909;-75
2022/08/21 18:05:03;;;;;;;;;;;;;;;;;;5041061;28;19912;-76
2022/08/21 18:07:49;;;;;;;;;;;;;;;;;;5048136;28;20284;-74
2022/08/21 18:10:35;;;;;;;;;;;;;;;;;;5046069;28;19912;-75
2022/08/21 18:13:23;;;;;;;;;;;;;;;;;;5041450;28;19925;-74
2022/08/21 18:16:11;;;;;;;;;;;;;;;;;;5037168;28;19920;-75
2022/08/21 18:18:57;;;;;;;;;;;;;;;;;;5045421;28;19921;-75
2022/08/21 18:21:44;;;;;;;;;;;;;;;;;;5036009;28;20024;-74
2022/08/21 18:24:31;;;;;;;;;;;;;;;;;;5046975;28;19909;-75
2022/08/21 18:27:17;;;;;;;;;;;;;;;;;;5043629;28;20376;-75
2022/08/21 18:30:03;;;;;;;;;;;;;;;;;;5037494;28;19913;-74
2022/08/21 18:32:50;;;;;;;;;;;;;;;;;;5043962;28;20470;-75
2022/08/21 18:35:36;;;;;;;;;;;;;;;;;;5034652;28;20381;-75
2022/08/21 18:38:23;;;;;;;;;;;;;;;;;;5037946;28;19925;-74
2022/08/21 18:41:09;;;;;;;;;;;;;;;;;;5041106;28;19917;-74
2022/08/21 18:43:56;;;;;;;;;;;;;;;;;;5024817;28;19912;-76
2022/08/21 18:46:42;;;;;;;;;;;;;;;;;;5047609;28;19916;-75
2022/08/21 18:49:29;;;;;;;;;;;;;;;;;;5044581;28;19924;-75
2022/08/21 18:52:16;;;;;;;;;;;;;;;;;;5044323;28;19909;-74
2022/08/21 18:55:02;;;;;;;;;;;;;;;;;;5046295;28;20391;-75
2022/08/21 18:57:49;;;;;;;;;;;;;;;;;;5044401;28;19913;-76
2022/08/21 19:00:36;;;;;;;;;;;;;;;;;;5043671;28;20294;-73
2022/08/21 19:03:23;;;;;;;;;;;;;;;;;;5039443;28;19913;-76